createdAt,value
2017-12-17T00:00:08.238Z,25.70
2017-12-17T00:02:38.678Z,25.70
2017-12-17T00:05:09.137Z,25.80
2017-12-17T00:07:39.586Z,25.80
2017-12-17T00:10:10.058Z,25.80
2017-12-17T00:12:40.520Z,25.90
2017-12-17T00:15:11.006Z,25.90
2017-12-17T00:17:41.473Z,25.90
2017-12-17T00:20:11.943Z,25.90
2017-12-17T00:22:42.811Z,26.00
2017-12-17T00:25:13.335Z,26.00
2017-12-17T00:27:43.779Z,26.00
2017-12-17T00:30:15.030Z,26.10
2017-12-17T00:32:46.250Z,26.10
2017-12-17T00:35:16.697Z,26.10
2017-12-17T00:37:47.905Z,26.20
2017-12-17T00:40:18.364Z,26.20
2017-12-17T00:42:49.611Z,26.30
2017-12-17T00:45:20.835Z,26.40
2017-12-17T00:47:51.297Z,26.40
2017-12-17T00:50:22.566Z,26.60
2017-12-17T00:52:53.018Z,26.60
2017-12-17T00:55:23.487Z,26.70
2017-12-17T00:57:54.679Z,26.90
2017-12-17T01:00:25.129Z,26.80
2017-12-17T01:02:55.560Z,26.90
2017-12-17T01:05:25.975Z,27.00
2017-12-17T01:07:56.403Z,27.10
2017-12-17T01:10:26.912Z,27.20
2017-12-17T01:12:57.395Z,27.30
2017-12-17T01:15:28.682Z,27.40
2017-12-17T01:17:59.120Z,27.40
2017-12-17T01:20:29.572Z,27.40
2017-12-17T01:23:00.010Z,27.40
2017-12-17T01:25:30.478Z,27.40
2017-12-17T01:28:00.961Z,27.40
2017-12-17T01:30:31.425Z,27.40
2017-12-17T01:33:01.917Z,27.50
2017-12-17T01:35:32.403Z,27.50
2017-12-17T01:38:02.917Z,27.50
2017-12-17T01:40:33.371Z,27.50
2017-12-17T01:43:03.807Z,27.50
2017-12-17T01:45:34.293Z,27.60
2017-12-17T01:48:04.730Z,27.60
2017-12-17T01:50:35.187Z,27.60
2017-12-17T01:53:05.618Z,27.60
2017-12-17T01:55:36.082Z,27.60
2017-12-17T01:58:07.303Z,27.60
2017-12-17T02:00:37.781Z,27.60
2017-12-17T02:03:08.210Z,27.60
2017-12-17T02:05:38.683Z,27.60
2017-12-17T02:08:09.133Z,27.60
2017-12-17T02:10:40.355Z,27.70
2017-12-17T02:13:10.807Z,27.70
2017-12-17T02:15:42.034Z,27.70
2017-12-17T02:18:12.493Z,27.70
2017-12-17T02:20:42.959Z,27.70
2017-12-17T02:23:13.415Z,27.80
2017-12-17T02:25:43.902Z,27.90
2017-12-17T02:28:14.613Z,27.90
2017-12-17T02:30:45.101Z,28.00
2017-12-17T02:33:15.579Z,28.00
2017-12-17T02:35:46.062Z,28.10
2017-12-17T02:38:16.542Z,28.10
2017-12-17T02:40:47.030Z,28.10
2017-12-17T02:43:18.545Z,28.20
2017-12-17T02:45:49.098Z,28.20
2017-12-17T02:48:19.546Z,28.30
2017-12-17T02:50:50.788Z,28.40
2017-12-17T02:53:21.980Z,28.40
2017-12-17T02:55:52.429Z,28.40
2017-12-17T02:58:22.886Z,28.40
2017-12-17T03:00:54.348Z,28.50
2017-12-17T03:03:25.598Z,28.60
2017-12-17T03:05:56.061Z,28.60
2017-12-17T03:08:26.540Z,28.70
2017-12-17T03:10:57.793Z,28.80
2017-12-17T03:13:28.251Z,28.80
2017-12-17T03:15:58.736Z,28.80
2017-12-17T03:18:30.024Z,29.00
2017-12-17T03:21:00.515Z,29.00
2017-12-17T03:23:31.726Z,29.10
2017-12-17T03:26:02.186Z,29.10
2017-12-17T03:28:33.407Z,29.20
2017-12-17T03:31:03.883Z,29.20
2017-12-17T03:33:34.317Z,29.30
2017-12-17T03:36:04.764Z,29.40
2017-12-17T03:38:35.247Z,29.40
2017-12-17T03:41:06.502Z,29.50
2017-12-17T03:43:36.924Z,29.50
2017-12-17T03:46:08.159Z,29.80
2017-12-17T03:48:39.387Z,29.80
2017-12-17T03:51:09.903Z,29.80
2017-12-17T03:53:40.369Z,29.80
2017-12-17T03:56:11.606Z,29.80
2017-12-17T03:58:42.853Z,29.90
2017-12-17T04:01:14.150Z,29.90
2017-12-17T04:03:44.614Z,29.90
2017-12-17T04:06:15.098Z,30.10
2017-12-17T04:08:45.527Z,30.20
2017-12-17T04:11:15.996Z,30.30
2017-12-17T04:13:46.463Z,30.40
2017-12-17T04:16:16.922Z,30.50
2017-12-17T04:18:47.394Z,30.50
2017-12-17T04:21:18.626Z,30.60
2017-12-17T04:23:49.099Z,30.70
2017-12-17T04:26:19.535Z,30.70
2017-12-17T04:28:49.943Z,30.70
2017-12-17T04:31:20.372Z,30.70
2017-12-17T04:33:50.810Z,30.80
2017-12-17T04:36:21.277Z,30.80
2017-12-17T04:38:51.735Z,30.80
2017-12-17T04:41:22.946Z,30.90
2017-12-17T04:43:53.372Z,30.80
2017-12-17T04:46:23.838Z,30.90
2017-12-17T04:48:54.278Z,30.90
2017-12-17T04:51:24.745Z,31.00
2017-12-17T04:53:55.217Z,31.00
2017-12-17T04:56:26.493Z,31.00
2017-12-17T04:58:56.970Z,31.00
2017-12-17T05:01:27.429Z,31.00
2017-12-17T05:03:57.872Z,31.00
2017-12-17T05:06:28.314Z,30.90
2017-12-17T05:08:58.750Z,30.90
2017-12-17T05:11:29.218Z,30.90
2017-12-17T05:14:00.427Z,30.90
2017-12-17T05:16:30.855Z,30.90
2017-12-17T05:19:01.315Z,30.90
2017-12-17T05:21:32.524Z,31.00
2017-12-17T05:24:02.951Z,31.00
2017-12-17T05:26:33.426Z,30.90
2017-12-17T05:29:04.645Z,30.90
2017-12-17T05:31:35.115Z,30.90
2017-12-17T05:34:05.545Z,30.90
2017-12-17T05:36:35.999Z,30.90
2017-12-17T05:39:06.698Z,30.80
2017-12-17T05:41:37.165Z,30.80
2017-12-17T05:44:07.614Z,30.80
2017-12-17T05:46:38.067Z,30.80
2017-12-17T05:49:09.287Z,30.80
2017-12-17T05:51:39.754Z,30.80
2017-12-17T05:54:10.241Z,30.90
2017-12-17T05:56:40.710Z,31.10
2017-12-17T05:59:11.171Z,31.20
2017-12-17T06:01:41.636Z,31.20
2017-12-17T06:04:12.806Z,31.30
2017-12-17T06:06:43.861Z,31.30
2017-12-17T06:09:14.346Z,31.30
2017-12-17T06:11:45.547Z,31.40
2017-12-17T06:14:16.028Z,31.40
2017-12-17T06:16:47.277Z,31.30
2017-12-17T06:19:18.461Z,31.20
2017-12-17T06:21:48.941Z,31.20
2017-12-17T06:24:20.165Z,30.90
2017-12-17T06:26:50.647Z,30.90
2017-12-17T06:29:21.108Z,30.80
2017-12-17T06:31:51.532Z,30.60
2017-12-17T06:34:21.946Z,30.70
2017-12-17T06:36:52.438Z,30.70
2017-12-17T06:39:22.883Z,30.70
2017-12-17T06:41:53.358Z,30.70
2017-12-17T06:44:23.810Z,30.70
2017-12-17T06:46:54.332Z,30.60
2017-12-17T06:49:25.564Z,30.80
2017-12-17T06:51:56.000Z,30.80
2017-12-17T06:54:27.207Z,31.00
2017-12-17T06:56:57.664Z,31.00
2017-12-17T06:59:28.099Z,31.10
2017-12-17T07:01:59.322Z,31.20
2017-12-17T07:04:29.738Z,31.20
2017-12-17T07:07:00.176Z,31.20
2017-12-17T07:09:30.596Z,31.20
2017-12-17T07:12:01.074Z,31.20
2017-12-17T07:14:31.499Z,31.20
2017-12-17T07:17:01.970Z,31.10
2017-12-17T07:19:32.397Z,31.10
2017-12-17T07:22:02.843Z,31.10
2017-12-17T07:24:33.298Z,31.20
2017-12-17T07:27:04.513Z,31.20
2017-12-17T07:29:34.958Z,31.20
2017-12-17T07:32:06.179Z,31.10
2017-12-17T07:34:36.673Z,31.10
2017-12-17T07:37:07.110Z,31.10
2017-12-17T07:39:37.524Z,31.00
2017-12-17T07:42:07.980Z,31.00
2017-12-17T07:44:38.453Z,31.00
2017-12-17T07:47:09.675Z,30.90
2017-12-17T07:49:40.133Z,30.90
2017-12-17T07:52:10.610Z,30.90
2017-12-17T07:54:41.019Z,30.90
2017-12-17T07:57:11.607Z,30.80
2017-12-17T07:59:42.814Z,30.80
2017-12-17T08:02:13.368Z,30.80
2017-12-17T08:04:44.706Z,30.80
2017-12-17T08:07:15.166Z,30.80
2017-12-17T08:09:45.607Z,30.80
2017-12-17T08:12:16.028Z,30.70
2017-12-17T08:14:46.509Z,30.70
2017-12-17T08:17:16.971Z,30.60
2017-12-17T08:19:48.161Z,30.50
2017-12-17T08:22:18.606Z,30.50
2017-12-17T08:24:49.066Z,30.50
2017-12-17T08:27:20.321Z,30.30
2017-12-17T08:29:50.779Z,30.30
2017-12-17T08:32:21.235Z,30.30
2017-12-17T08:34:51.670Z,30.20
2017-12-17T08:37:22.118Z,30.10
2017-12-17T08:39:53.319Z,30.00
2017-12-17T08:42:23.909Z,30.10
2017-12-17T08:44:54.368Z,30.00
2017-12-17T08:47:24.793Z,29.90
2017-12-17T08:49:55.282Z,29.90
2017-12-17T08:52:25.744Z,29.80
2017-12-17T08:54:56.182Z,29.70
2017-12-17T08:57:26.617Z,29.70
2017-12-17T08:59:57.089Z,29.70
2017-12-17T09:02:27.531Z,29.70
2017-12-17T09:04:57.970Z,29.60
2017-12-17T09:07:28.408Z,29.60
2017-12-17T09:09:59.666Z,29.60
2017-12-17T09:12:30.112Z,29.60
2017-12-17T09:15:00.594Z,29.60
2017-12-17T09:17:31.011Z,29.60
2017-12-17T09:20:01.458Z,29.60
2017-12-17T09:22:31.921Z,29.60
2017-12-17T09:25:02.399Z,29.50
2017-12-17T09:27:32.859Z,29.60
2017-12-17T09:30:03.297Z,29.60
2017-12-17T09:32:33.746Z,29.60
2017-12-17T09:35:04.958Z,29.60
2017-12-17T09:37:35.424Z,29.60
2017-12-17T09:40:06.631Z,29.60
2017-12-17T09:42:37.101Z,29.60
2017-12-17T09:45:08.320Z,29.60
2017-12-17T09:47:38.791Z,29.60
2017-12-17T09:50:09.239Z,29.60
2017-12-17T09:52:39.686Z,29.60
2017-12-17T09:55:10.147Z,29.60
2017-12-17T09:57:41.334Z,29.50
2017-12-17T10:00:11.810Z,29.50
2017-12-17T10:02:43.041Z,29.50
2017-12-17T10:05:13.484Z,29.50
2017-12-17T10:07:44.724Z,29.50
2017-12-17T10:10:15.165Z,29.50
2017-12-17T10:12:46.417Z,29.50
2017-12-17T10:15:17.628Z,29.50
2017-12-17T10:17:48.091Z,29.50
2017-12-17T10:20:19.475Z,29.50
2017-12-17T10:22:49.946Z,29.50
2017-12-17T10:25:20.406Z,29.50
2017-12-17T10:27:50.834Z,29.40
2017-12-17T10:30:21.310Z,29.40
2017-12-17T10:32:54.105Z,29.30
2017-12-17T10:35:24.560Z,29.30
2017-12-17T10:37:55.796Z,29.30
2017-12-17T10:40:27.041Z,29.20
2017-12-17T10:42:58.294Z,29.20
2017-12-17T10:45:29.534Z,29.20
2017-12-17T10:48:00.774Z,29.20
2017-12-17T10:50:31.997Z,29.10
2017-12-17T10:53:02.461Z,29.10
2017-12-17T10:55:33.783Z,29.00
2017-12-17T10:58:04.273Z,29.00
2017-12-17T11:00:34.788Z,28.90
2017-12-17T11:03:05.301Z,28.90
2017-12-17T11:05:35.718Z,28.90
2017-12-17T11:08:06.962Z,28.90
2017-12-17T11:10:38.176Z,28.80
2017-12-17T11:13:08.693Z,28.80
2017-12-17T11:15:39.106Z,28.80
2017-12-17T11:18:09.547Z,28.70
2017-12-17T11:20:39.993Z,28.70
2017-12-17T11:23:10.454Z,28.60
2017-12-17T11:25:40.862Z,28.50
2017-12-17T11:28:12.405Z,28.40
2017-12-17T11:30:42.843Z,28.40
2017-12-17T11:33:14.100Z,28.40
2017-12-17T11:35:45.318Z,28.40
2017-12-17T11:38:16.019Z,28.40
2017-12-17T11:40:46.451Z,28.30
2017-12-17T11:43:16.895Z,28.20
2017-12-17T11:45:47.347Z,28.20
2017-12-17T11:48:18.535Z,28.10
2017-12-17T11:50:48.983Z,28.10
2017-12-17T11:53:19.432Z,28.10
2017-12-17T11:55:49.881Z,28.10
2017-12-17T11:58:21.095Z,28.10
2017-12-17T12:00:52.062Z,28.10
2017-12-17T12:03:23.283Z,28.00
2017-12-17T12:05:53.715Z,28.00
2017-12-17T12:08:24.175Z,28.00
2017-12-17T12:10:54.623Z,27.90
2017-12-17T12:13:25.090Z,27.70
2017-12-17T12:15:55.522Z,27.60
2017-12-17T12:18:25.991Z,27.60
2017-12-17T12:20:56.407Z,27.50
2017-12-17T12:23:27.633Z,27.50
2017-12-17T12:25:58.853Z,27.40
2017-12-17T12:28:29.298Z,27.40
2017-12-17T12:31:00.509Z,27.30
2017-12-17T12:33:30.956Z,27.30
2017-12-17T12:36:01.398Z,27.30
2017-12-17T12:38:31.862Z,27.30
2017-12-17T12:41:02.297Z,27.30
2017-12-17T12:43:33.006Z,27.30
2017-12-17T12:46:04.210Z,27.20
2017-12-17T12:48:34.665Z,27.30
2017-12-17T12:51:05.894Z,27.40
2017-12-17T12:53:36.408Z,27.40
2017-12-17T12:56:06.848Z,27.40
2017-12-17T12:58:37.308Z,27.30
2017-12-17T13:01:08.550Z,27.30
2017-12-17T13:03:39.010Z,27.20
2017-12-17T13:06:09.441Z,27.20
2017-12-17T13:08:39.886Z,27.30
2017-12-17T13:11:10.348Z,27.30
2017-12-17T13:13:41.547Z,27.30
2017-12-17T13:16:11.978Z,27.30
2017-12-17T13:18:42.406Z,27.30
2017-12-17T13:21:12.927Z,27.30
2017-12-17T13:23:43.369Z,27.30
2017-12-17T13:26:13.829Z,27.40
2017-12-17T13:28:45.076Z,27.40
2017-12-17T13:31:16.263Z,27.50
2017-12-17T13:33:46.719Z,27.40
2017-12-17T13:36:17.187Z,27.50
2017-12-17T13:38:48.422Z,27.50
2017-12-17T13:41:19.618Z,27.50
2017-12-17T13:43:50.127Z,27.50
2017-12-17T13:46:20.570Z,27.50
2017-12-17T13:48:51.154Z,27.40
2017-12-17T13:51:22.389Z,27.40
2017-12-17T13:53:53.663Z,27.40
2017-12-17T13:56:24.149Z,27.40
2017-12-17T13:58:54.632Z,27.40
2017-12-17T14:01:25.062Z,27.30
2017-12-17T14:03:55.553Z,27.20
2017-12-17T14:06:26.782Z,27.20
2017-12-17T14:08:57.262Z,27.20
2017-12-17T14:11:27.724Z,27.20
2017-12-17T14:13:58.167Z,27.20
2017-12-17T14:16:28.606Z,27.20
2017-12-17T14:18:59.820Z,27.20
2017-12-17T14:21:30.263Z,27.10
2017-12-17T14:24:00.754Z,27.20
2017-12-17T14:26:31.471Z,27.20
2017-12-17T14:29:01.926Z,27.10
2017-12-17T14:31:32.366Z,27.10
2017-12-17T14:34:02.835Z,27.00
2017-12-17T14:36:34.050Z,27.00
2017-12-17T14:39:07.605Z,27.00
2017-12-17T14:41:40.149Z,26.90
2017-12-17T14:44:11.662Z,26.90
2017-12-17T14:46:42.107Z,26.90
2017-12-17T14:49:12.577Z,26.90
2017-12-17T14:51:43.055Z,26.90
2017-12-17T14:54:13.574Z,26.90
2017-12-17T14:56:44.013Z,26.80
2017-12-17T14:59:14.530Z,26.70
2017-12-17T15:01:45.017Z,26.70
2017-12-17T15:04:15.469Z,26.60
2017-12-17T15:06:45.930Z,26.60
2017-12-17T15:09:16.364Z,26.60
2017-12-17T15:11:46.826Z,26.60
2017-12-17T15:14:18.055Z,26.60
2017-12-17T15:16:49.275Z,26.70
2017-12-17T15:19:19.746Z,26.60
2017-12-17T15:21:50.213Z,26.70
2017-12-17T15:24:20.658Z,26.70
2017-12-17T15:26:51.125Z,26.70
2017-12-17T15:29:21.637Z,26.70
2017-12-17T15:31:52.838Z,26.80
2017-12-17T15:34:23.304Z,26.80
2017-12-17T15:36:54.493Z,26.70
2017-12-17T15:39:24.974Z,26.70
2017-12-17T15:41:56.143Z,26.70
2017-12-17T15:44:26.622Z,26.70
2017-12-17T15:46:57.043Z,26.70
2017-12-17T15:49:27.534Z,26.70
2017-12-17T15:51:57.971Z,26.60
2017-12-17T15:54:28.428Z,26.70
2017-12-17T15:56:58.878Z,26.70
2017-12-17T15:59:30.073Z,26.70
2017-12-17T16:02:00.546Z,26.70
2017-12-17T16:04:31.809Z,26.80
2017-12-17T16:07:02.288Z,26.70
2017-12-17T16:09:32.757Z,26.80
2017-12-17T16:12:03.974Z,26.80
2017-12-17T16:14:34.402Z,26.80
2017-12-17T16:17:04.878Z,26.80
2017-12-17T16:19:35.369Z,26.80
2017-12-17T16:22:05.809Z,26.80
2017-12-17T16:24:37.038Z,26.80
2017-12-17T16:27:07.492Z,26.80
2017-12-17T16:29:37.956Z,26.90
2017-12-17T16:32:08.434Z,26.90
2017-12-17T16:34:39.657Z,26.80
2017-12-17T16:37:10.091Z,26.80
2017-12-17T16:39:40.557Z,26.80
2017-12-17T16:42:11.006Z,26.80
2017-12-17T16:44:41.468Z,26.70
2017-12-17T16:47:11.918Z,26.70
2017-12-17T16:49:43.134Z,26.60
2017-12-17T16:52:13.634Z,26.70
2017-12-17T16:54:44.115Z,26.70
2017-12-17T16:57:15.366Z,26.70
2017-12-17T16:59:46.582Z,26.80
2017-12-17T17:02:17.022Z,26.70
2017-12-17T17:04:47.505Z,26.80
2017-12-17T17:07:17.941Z,26.80
2017-12-17T17:09:48.385Z,26.80
2017-12-17T17:12:18.846Z,26.80
2017-12-17T17:14:50.089Z,26.80
2017-12-17T17:17:21.282Z,26.90
2017-12-17T17:19:51.739Z,26.80
2017-12-17T17:22:22.218Z,26.90
2017-12-17T17:24:52.688Z,26.90
2017-12-17T17:27:23.157Z,26.40
2017-12-17T17:29:53.618Z,26.80
2017-12-17T17:32:24.078Z,26.90
2017-12-17T17:34:54.529Z,26.80
2017-12-17T17:37:25.731Z,26.80
2017-12-17T17:39:56.159Z,26.80
2017-12-17T17:42:26.607Z,26.80
2017-12-17T17:44:57.045Z,26.80
2017-12-17T17:47:28.242Z,26.70
2017-12-17T17:49:58.722Z,26.70
2017-12-17T17:52:29.937Z,26.60
2017-12-17T17:55:00.403Z,26.60
2017-12-17T17:57:31.618Z,26.60
2017-12-17T18:00:02.070Z,26.50
2017-12-17T18:02:33.285Z,26.60
2017-12-17T18:05:03.726Z,26.50
2017-12-17T18:07:34.174Z,26.50
2017-12-17T18:10:05.372Z,26.50
2017-12-17T18:12:35.802Z,26.50
2017-12-17T18:15:06.267Z,26.50
2017-12-17T18:17:37.511Z,26.50
2017-12-17T18:20:08.762Z,26.60
2017-12-17T18:22:39.963Z,26.50
2017-12-17T18:25:10.430Z,26.50
2017-12-17T18:27:41.616Z,26.60
2017-12-17T18:30:12.058Z,26.50
2017-12-17T18:32:42.485Z,26.50
2017-12-17T18:35:12.970Z,26.60
2017-12-17T18:37:43.406Z,26.60
2017-12-17T18:40:13.870Z,26.60
2017-12-17T18:42:44.286Z,26.60
2017-12-17T18:45:14.741Z,26.60
2017-12-17T18:47:45.206Z,26.60
2017-12-17T18:50:15.622Z,26.60
2017-12-17T18:52:46.822Z,26.60
2017-12-17T18:55:17.269Z,26.60
2017-12-17T18:57:47.691Z,26.60
2017-12-17T19:00:18.151Z,26.60
2017-12-17T19:02:49.342Z,26.70
2017-12-17T19:05:19.808Z,26.70
2017-12-17T19:07:51.038Z,26.70
2017-12-17T19:10:21.562Z,26.70
2017-12-17T19:12:51.979Z,26.70
2017-12-17T19:15:22.469Z,26.70
2017-12-17T19:17:52.935Z,26.70
2017-12-17T19:20:23.377Z,26.70
2017-12-17T19:22:53.817Z,26.70
2017-12-17T19:25:25.032Z,26.70
2017-12-17T19:27:55.450Z,26.70
2017-12-17T19:30:25.909Z,26.70
2017-12-17T19:32:56.326Z,26.70
2017-12-17T19:35:26.773Z,26.70
2017-12-17T19:37:57.989Z,26.70
2017-12-17T19:40:28.417Z,26.70
2017-12-17T19:42:58.880Z,26.70
2017-12-17T19:45:30.059Z,26.70
2017-12-17T19:48:00.486Z,26.70
2017-12-17T19:50:30.986Z,26.70
2017-12-17T19:53:01.426Z,26.70
2017-12-17T19:55:31.862Z,26.60
2017-12-17T19:58:02.251Z,26.60
2017-12-17T20:00:33.459Z,26.60
2017-12-17T20:03:03.892Z,26.60
2017-12-17T20:05:34.326Z,26.60
2017-12-17T20:08:04.788Z,26.60
2017-12-17T20:10:35.273Z,26.70
2017-12-17T20:13:05.714Z,26.70
2017-12-17T20:15:36.166Z,26.70
2017-12-17T20:18:07.482Z,26.70
2017-12-17T20:20:38.100Z,26.70
2017-12-17T20:23:08.662Z,26.70
2017-12-17T20:25:40.099Z,26.70
2017-12-17T20:28:10.799Z,26.70
2017-12-17T20:30:41.557Z,26.70
2017-12-17T20:33:12.089Z,26.70
2017-12-17T20:35:42.553Z,26.70
2017-12-17T20:38:13.001Z,26.70
2017-12-17T20:40:43.461Z,26.60
2017-12-17T20:43:13.873Z,26.60
2017-12-17T20:45:44.315Z,26.60
2017-12-17T20:48:14.763Z,26.60
2017-12-17T20:50:45.197Z,26.50
2017-12-17T20:53:15.603Z,26.50
2017-12-17T20:55:46.058Z,26.50
2017-12-17T20:58:17.238Z,26.40
2017-12-17T21:00:47.713Z,26.40
2017-12-17T21:03:18.129Z,26.40
2017-12-17T21:05:48.558Z,26.30
2017-12-17T21:08:19.022Z,26.30
2017-12-17T21:10:49.501Z,26.30
2017-12-17T21:13:19.918Z,26.30
2017-12-17T21:15:50.378Z,26.30
2017-12-17T21:18:20.795Z,26.20
2017-12-17T21:20:51.242Z,26.20
2017-12-17T21:23:22.455Z,26.20
2017-12-17T21:25:52.901Z,26.20
2017-12-17T21:28:23.340Z,26.20
2017-12-17T21:30:54.553Z,26.20
2017-12-17T21:33:24.981Z,26.20
2017-12-17T21:35:55.443Z,26.20
2017-12-17T21:38:26.642Z,26.10
2017-12-17T21:40:57.054Z,26.10
2017-12-17T21:43:27.497Z,26.00
2017-12-17T21:45:57.954Z,26.00
2017-12-17T21:48:28.402Z,26.00
2017-12-17T21:50:59.614Z,26.00
2017-12-17T21:53:30.061Z,26.00
2017-12-17T21:56:01.234Z,26.00
2017-12-17T21:58:31.661Z,26.00
2017-12-17T22:01:02.118Z,26.00
2017-12-17T22:03:32.598Z,26.10
2017-12-17T22:06:03.831Z,26.00
2017-12-17T22:08:35.035Z,26.10
2017-12-17T22:11:05.536Z,26.00
2017-12-17T22:13:35.955Z,25.90
2017-12-17T22:16:06.362Z,25.90
2017-12-17T22:18:36.890Z,25.90
2017-12-17T22:21:08.111Z,25.80
2017-12-17T22:23:38.642Z,25.80
2017-12-17T22:26:09.068Z,25.80
2017-12-17T22:28:39.497Z,25.80
2017-12-17T22:31:09.939Z,25.80
2017-12-17T22:33:41.166Z,25.80
2017-12-17T22:36:11.601Z,25.80
2017-12-17T22:38:42.045Z,25.80
2017-12-17T22:41:13.275Z,25.70
2017-12-17T22:43:43.715Z,25.70
2017-12-17T22:46:14.938Z,25.50
2017-12-17T22:48:45.395Z,25.30
2017-12-17T22:51:16.636Z,25.50
2017-12-17T22:53:47.851Z,25.50
2017-12-17T22:56:18.293Z,25.50
2017-12-17T22:58:48.766Z,25.40
2017-12-17T23:01:19.230Z,25.50
2017-12-17T23:03:49.669Z,25.50
2017-12-17T23:06:20.130Z,25.50
2017-12-17T23:08:50.582Z,25.50
2017-12-17T23:11:21.043Z,25.50
2017-12-17T23:13:51.474Z,25.50
2017-12-17T23:16:21.994Z,25.60
2017-12-17T23:18:52.438Z,25.60
2017-12-17T23:21:22.893Z,25.60
2017-12-17T23:23:53.344Z,25.70
2017-12-17T23:26:23.795Z,25.70
2017-12-17T23:28:54.222Z,25.70
2017-12-17T23:31:24.703Z,25.70
2017-12-17T23:33:55.102Z,25.80
2017-12-17T23:36:25.539Z,25.80
2017-12-17T23:38:56.710Z,25.80
2017-12-17T23:41:27.186Z,25.80
2017-12-17T23:43:57.638Z,25.80
2017-12-17T23:46:28.824Z,25.80
2017-12-17T23:48:59.257Z,25.80
2017-12-17T23:51:29.938Z,25.80
2017-12-17T23:54:01.152Z,25.80
2017-12-17T23:56:31.614Z,25.80
2017-12-17T23:59:02.775Z,25.90
